Time,TemperatureF,DewpointF,PressureIn,WindDirection,WindDirectionDegrees,WindSpeedMPH,WindSpeedGustMPH,Humidity,HourlyPrecipIn,Conditions,Clouds,dailyrainin,SolarRadiationWatts/m^2,SoftwareType,DateUTC
2013-05-11 00:02:00,42.0,27.0,-100.00,SSW,211,3.0,7.0,54,0.00,,,0.00,1.000000,,2013-05-11 06:02:00,
2013-05-11 00:12:00,42.0,27.0,-100.00,SSW,211,3.0,7.0,54,0.00,,,0.00,1.000000,,2013-05-11 06:12:00,
2013-05-11 00:21:00,42.0,27.0,-100.00,SSW,211,3.0,7.0,54,0.00,,,0.00,1.000000,,2013-05-11 06:21:00,
2013-05-11 00:42:00,39.0,22.0,-100.00,NNW,333,3.0,10.0,50,0.00,,,0.00,0.000000,,2013-05-11 06:42:00,
2013-05-11 00:52:00,39.0,22.0,-100.00,NNW,333,3.0,10.0,50,0.00,,,0.00,0.000000,,2013-05-11 06:52:00,
2013-05-11 01:02:00,39.0,22.0,-100.00,NNW,333,3.0,10.0,50,0.00,,,0.00,0.000000,,2013-05-11 07:02:00,
2013-05-11 01:11:00,39.0,22.0,-100.00,NNW,333,3.0,10.0,50,0.00,,,0.00,0.000000,,2013-05-11 07:11:00,
2013-05-11 01:21:00,39.0,22.0,-100.00,NNW,333,3.0,10.0,50,0.00,,,0.00,0.000000,,2013-05-11 07:21:00,
2013-05-11 01:42:00,37.0,18.0,-100.00,SSE,158,3.0,6.0,46,0.00,,,0.00,1.000000,,2013-05-11 07:42:00,
2013-05-11 01:52:00,37.0,18.0,-100.00,SSE,158,3.0,6.0,46,0.00,,,0.00,1.000000,,2013-05-11 07:52:00,
2013-05-11 02:01:00,37.0,18.0,-100.00,SSE,158,3.0,6.0,46,0.00,,,0.00,1.000000,,2013-05-11 08:01:00,
2013-05-11 02:12:00,37.0,18.0,-100.00,SSE,158,3.0,6.0,46,0.00,,,0.00,1.000000,,2013-05-11 08:12:00,
2013-05-11 02:21:00,37.0,18.0,-100.00,SSE,158,3.0,6.0,46,0.00,,,0.00,1.000000,,2013-05-11 08:21:00,
2013-05-11 02:43:00,36.0,20.0,-100.00,SSW,211,3.0,6.0,51,0.00,,,0.00,0.000000,,2013-05-11 08:43:00,
2013-05-11 02:52:00,36.0,20.0,-100.00,SSW,211,3.0,6.0,51,0.00,,,0.00,0.000000,,2013-05-11 08:52:00,
2013-05-11 03:01:00,36.0,20.0,-100.00,SSW,211,3.0,6.0,51,0.00,,,0.00,0.000000,,2013-05-11 09:01:00,
2013-05-11 03:11:00,36.0,20.0,-100.00,SSW,211,3.0,6.0,51,0.00,,,0.00,0.000000,,2013-05-11 09:11:00,
2013-05-11 03:21:00,36.0,20.0,-100.00,SSW,211,3.0,6.0,51,0.00,,,0.00,0.000000,,2013-05-11 09:21:00,
2013-05-11 03:42:00,35.0,19.0,-100.00,South,171,2.0,5.0,52,0.00,,,0.00,1.000000,,2013-05-11 09:42:00,
2013-05-11 03:52:00,35.0,19.0,-100.00,South,171,2.0,5.0,52,0.00,,,0.00,1.000000,,2013-05-11 09:52:00,
2013-05-11 04:03:00,35.0,19.0,-100.00,South,171,2.0,5.0,52,0.00,,,0.00,1.000000,,2013-05-11 10:03:00,
2013-05-11 04:12:00,35.0,19.0,-100.00,South,171,2.0,5.0,52,0.00,,,0.00,1.000000,,2013-05-11 10:12:00,
2013-05-11 04:22:00,35.0,19.0,-100.00,South,171,2.0,5.0,52,0.00,,,0.00,1.000000,,2013-05-11 10:22:00,
2013-05-11 04:42:00,33.0,19.0,-100.00,NE,37,2.0,6.0,55,0.00,,,0.00,1.000000,,2013-05-11 10:42:00,
2013-05-11 04:53:00,33.0,19.0,-100.00,NE,37,2.0,6.0,55,0.00,,,0.00,1.000000,,2013-05-11 10:53:00,
2013-05-11 05:02:00,33.0,19.0,-100.00,NE,37,2.0,6.0,55,0.00,,,0.00,1.000000,,2013-05-11 11:02:00,
2013-05-11 05:12:00,33.0,19.0,-100.00,NE,37,2.0,6.0,55,0.00,,,0.00,1.000000,,2013-05-11 11:12:00,
2013-05-11 05:21:00,33.0,19.0,-100.00,NE,37,2.0,6.0,55,0.00,,,0.00,1.000000,,2013-05-11 11:21:00,
2013-05-11 05:42:00,34.0,21.0,-100.00,SSW,195,2.0,6.0,58,0.00,,,-99.99,1.000000,,2013-05-11 11:42:00,
2013-05-11 05:52:00,34.0,21.0,-100.00,SSW,195,2.0,6.0,58,0.00,,,-99.99,1.000000,,2013-05-11 11:52:00,
2013-05-11 06:01:00,34.0,21.0,-100.00,SSW,195,2.0,6.0,58,0.00,,,-99.99,1.000000,,2013-05-11 12:01:00,
2013-05-11 06:11:00,34.0,21.0,-100.00,SSW,195,2.0,6.0,58,0.00,,,-99.99,1.000000,,2013-05-11 12:11:00,
2013-05-11 06:21:00,34.0,21.0,-100.00,SSW,195,2.0,6.0,58,0.00,,,-99.99,1.000000,,2013-05-11 12:21:00,
2013-05-11 06:42:00,35.0,21.0,-100.00,SSW,209,2.0,3.0,56,0.00,,,-99.99,16.000000,,2013-05-11 12:42:00,
2013-05-11 06:52:00,35.0,21.0,-100.00,SSW,209,2.0,3.0,56,0.00,,,-99.99,16.000000,,2013-05-11 12:52:00,
2013-05-11 07:02:00,35.0,21.0,-100.00,SSW,209,2.0,3.0,56,0.00,,,-99.99,16.000000,,2013-05-11 13:02:00,
2013-05-11 07:11:00,35.0,21.0,-100.00,SSW,209,2.0,3.0,56,0.00,,,-99.99,16.000000,,2013-05-11 13:11:00,
2013-05-11 07:21:00,35.0,21.0,-100.00,SSW,209,2.0,3.0,56,0.00,,,-99.99,16.000000,,2013-05-11 13:21:00,
2013-05-11 07:42:00,36.0,22.0,-100.00,SW,234,0.0,3.0,56,0.00,,,0.00,54.000000,,2013-05-11 13:42:00,
2013-05-11 07:52:00,36.0,22.0,-100.00,SW,234,0.0,3.0,56,0.00,,,0.00,54.000000,,2013-05-11 13:52:00,
2013-05-11 08:02:00,36.0,22.0,-100.00,SW,234,0.0,3.0,56,0.00,,,0.00,54.000000,,2013-05-11 14:02:00,
2013-05-11 08:11:00,36.0,22.0,-100.00,SW,234,0.0,3.0,56,0.00,,,0.00,54.000000,,2013-05-11 14:11:00,
2013-05-11 08:21:00,36.0,22.0,-100.00,SW,234,0.0,3.0,56,0.00,,,0.00,54.000000,,2013-05-11 14:21:00,
2013-05-11 08:42:00,42.0,22.0,-100.00,SSW,197,3.0,5.0,45,0.00,,,0.00,189.000000,,2013-05-11 14:42:00,
2013-05-11 08:52:00,42.0,22.0,-100.00,SSW,197,3.0,5.0,45,0.00,,,0.00,189.000000,,2013-05-11 14:52:00,
2013-05-11 09:01:00,42.0,22.0,-100.00,SSW,197,3.0,5.0,45,0.00,,,0.00,189.000000,,2013-05-11 15:01:00,
2013-05-11 09:11:00,42.0,22.0,-100.00,SSW,197,3.0,5.0,45,0.00,,,0.00,189.000000,,2013-05-11 15:11:00,
2013-05-11 09:21:00,42.0,22.0,-100.00,SSW,197,3.0,5.0,45,0.00,,,0.00,189.000000,,2013-05-11 15:21:00,
2013-05-11 09:43:00,47.0,23.0,-100.00,SW,216,5.0,8.0,39,0.00,,,0.00,571.000000,,2013-05-11 15:43:00,
2013-05-11 09:53:00,47.0,23.0,-100.00,SW,216,5.0,8.0,39,0.00,,,0.00,571.000000,,2013-05-11 15:53:00,
2013-05-11 10:02:00,47.0,23.0,-100.00,SW,216,5.0,8.0,39,0.00,,,0.00,571.000000,,2013-05-11 16:02:00,
2013-05-11 10:12:00,47.0,23.0,-100.00,SW,216,5.0,8.0,39,0.00,,,0.00,571.000000,,2013-05-11 16:12:00,
2013-05-11 10:22:00,47.0,23.0,-100.00,SW,216,5.0,8.0,39,0.00,,,0.00,571.000000,,2013-05-11 16:22:00,
2013-05-11 10:42:00,50.0,23.0,-100.00,SSW,202,5.0,8.0,35,0.00,,,0.00,745.000000,,2013-05-11 16:42:00,
2013-05-11 10:53:00,50.0,23.0,-100.00,SSW,202,5.0,8.0,35,0.00,,,0.00,745.000000,,2013-05-11 16:53:00,
2013-05-11 11:02:00,50.0,23.0,-100.00,SSW,202,5.0,8.0,35,0.00,,,0.00,745.000000,,2013-05-11 17:02:00,
2013-05-11 11:12:00,50.0,23.0,-100.00,SSW,202,5.0,8.0,35,0.00,,,0.00,745.000000,,2013-05-11 17:12:00,
2013-05-11 11:22:00,50.0,23.0,-100.00,SSW,202,5.0,8.0,35,0.00,,,0.00,745.000000,,2013-05-11 17:22:00,
2013-05-11 11:42:00,52.0,27.0,-100.00,SE,127,5.0,12.0,38,0.00,,,0.00,798.000000,,2013-05-11 17:42:00,
2013-05-11 11:52:00,52.0,27.0,-100.00,SE,127,5.0,12.0,38,0.00,,,0.00,798.000000,,2013-05-11 17:52:00,
2013-05-11 12:01:00,52.0,27.0,-100.00,SE,127,5.0,12.0,38,0.00,,,0.00,798.000000,,2013-05-11 18:01:00,
2013-05-11 12:11:00,52.0,27.0,-100.00,SE,127,5.0,12.0,38,0.00,,,0.00,798.000000,,2013-05-11 18:11:00,
2013-05-11 12:21:00,52.0,27.0,-100.00,SE,127,5.0,12.0,38,0.00,,,0.00,798.000000,,2013-05-11 18:21:00,
2013-05-11 12:42:00,53.0,28.0,-100.00,SSE,162,7.0,13.0,38,0.00,,,0.00,879.000000,,2013-05-11 18:42:00,
2013-05-11 12:52:00,53.0,28.0,-100.00,SSE,162,7.0,13.0,38,0.00,,,0.00,879.000000,,2013-05-11 18:52:00,
2013-05-11 13:02:00,53.0,28.0,-100.00,SSE,162,7.0,13.0,38,0.00,,,0.00,879.000000,,2013-05-11 19:02:00,
2013-05-11 13:11:00,53.0,28.0,-100.00,SSE,162,7.0,13.0,38,0.00,,,0.00,879.000000,,2013-05-11 19:11:00,
2013-05-11 13:21:00,53.0,28.0,-100.00,SSE,162,7.0,13.0,38,0.00,,,0.00,879.000000,,2013-05-11 19:21:00,
2013-05-11 13:42:00,53.0,28.0,-100.00,SE,146,5.0,11.0,38,0.00,,,0.00,678.000000,,2013-05-11 19:42:00,
2013-05-11 13:53:00,53.0,28.0,-100.00,SE,146,5.0,11.0,38,0.00,,,0.00,678.000000,,2013-05-11 19:53:00,
2013-05-11 14:02:00,53.0,28.0,-100.00,SE,146,5.0,11.0,38,0.00,,,0.00,678.000000,,2013-05-11 20:02:00,
2013-05-11 14:12:00,53.0,28.0,-100.00,SE,146,5.0,11.0,38,0.00,,,0.00,678.000000,,2013-05-11 20:12:00,
2013-05-11 14:22:00,53.0,28.0,-100.00,SE,146,5.0,11.0,38,0.00,,,0.00,678.000000,,2013-05-11 20:22:00,
2013-05-11 14:42:00,53.0,27.0,-100.00,ESE,119,5.0,13.0,37,0.00,,,0.00,712.000000,,2013-05-11 20:42:00,
2013-05-11 14:52:00,53.0,27.0,-100.00,ESE,119,5.0,13.0,37,0.00,,,0.00,712.000000,,2013-05-11 20:52:00,
2013-05-11 15:02:00,53.0,27.0,-100.00,ESE,119,5.0,13.0,37,0.00,,,0.00,712.000000,,2013-05-11 21:02:00,
2013-05-11 15:11:00,53.0,27.0,-100.00,ESE,119,5.0,13.0,37,0.00,,,0.00,712.000000,,2013-05-11 21:11:00,
2013-05-11 15:21:00,53.0,27.0,-100.00,ESE,119,5.0,13.0,37,0.00,,,0.00,712.000000,,2013-05-11 21:21:00,
2013-05-11 15:43:00,55.0,26.0,-100.00,SSE,160,7.0,13.0,33,0.00,,,0.00,639.000000,,2013-05-11 21:43:00,
2013-05-11 15:53:00,55.0,26.0,-100.00,SSE,160,7.0,13.0,33,0.00,,,0.00,639.000000,,2013-05-11 21:53:00,
2013-05-11 16:02:00,55.0,26.0,-100.00,SSE,160,7.0,13.0,33,0.00,,,0.00,639.000000,,2013-05-11 22:02:00,
2013-05-11 16:13:00,55.0,26.0,-100.00,SSE,160,7.0,13.0,33,0.00,,,0.00,639.000000,,2013-05-11 22:13:00,
2013-05-11 16:23:00,55.0,26.0,-100.00,SSE,160,7.0,13.0,33,0.00,,,0.00,639.000000,,2013-05-11 22:23:00,
2013-05-11 16:43:00,56.0,29.0,-100.00,SE,134,4.0,11.0,35,0.00,,,0.00,578.000000,,2013-05-11 22:43:00,
2013-05-11 16:52:00,56.0,29.0,-100.00,SE,134,4.0,11.0,35,0.00,,,0.00,578.000000,,2013-05-11 22:52:00,
2013-05-11 17:02:00,56.0,29.0,-100.00,SE,134,4.0,11.0,35,0.00,,,0.00,578.000000,,2013-05-11 23:02:00,
2013-05-11 17:12:00,56.0,29.0,-100.00,SE,134,4.0,11.0,35,0.00,,,0.00,578.000000,,2013-05-11 23:12:00,
2013-05-11 17:22:00,56.0,29.0,-100.00,SE,134,4.0,11.0,35,0.00,,,0.00,578.000000,,2013-05-11 23:22:00,
2013-05-11 17:42:00,53.0,27.0,-100.00,SSE,147,5.0,9.0,37,0.00,,,0.00,399.000000,,2013-05-11 23:42:00,
2013-05-11 17:52:00,53.0,27.0,-100.00,SSE,147,5.0,9.0,37,0.00,,,0.00,399.000000,,2013-05-11 23:52:00,
2013-05-11 18:01:00,53.0,27.0,-100.00,SSE,147,5.0,9.0,37,0.00,,,0.00,399.000000,,2013-05-12 00:01:00,
2013-05-11 18:11:00,53.0,27.0,-100.00,SSE,147,5.0,9.0,37,0.00,,,0.00,399.000000,,2013-05-12 00:11:00,
2013-05-11 18:21:00,53.0,27.0,-100.00,SSE,147,5.0,9.0,37,0.00,,,0.00,399.000000,,2013-05-12 00:21:00,
2013-05-11 18:42:00,52.0,29.0,-100.00,ESE,108,3.0,8.0,41,0.00,,,0.00,211.000000,,2013-05-12 00:42:00,
2013-05-11 18:52:00,52.0,29.0,-100.00,ESE,108,3.0,8.0,41,0.00,,,0.00,211.000000,,2013-05-12 00:52:00,
2013-05-11 19:01:00,52.0,29.0,-100.00,ESE,108,3.0,8.0,41,0.00,,,0.00,211.000000,,2013-05-12 01:01:00,
2013-05-11 19:11:00,52.0,29.0,-100.00,ESE,108,3.0,8.0,41,0.00,,,0.00,211.000000,,2013-05-12 01:11:00,
2013-05-11 19:21:00,52.0,29.0,-100.00,ESE,108,3.0,8.0,41,0.00,,,0.00,211.000000,,2013-05-12 01:21:00,
2013-05-11 19:42:00,47.0,28.0,-100.00,ESE,119,2.0,6.0,48,0.00,,,0.00,55.000000,,2013-05-12 01:42:00,
2013-05-11 19:52:00,47.0,28.0,-100.00,ESE,119,2.0,6.0,48,0.00,,,0.00,55.000000,,2013-05-12 01:52:00,
2013-05-11 20:01:00,47.0,28.0,-100.00,ESE,119,2.0,6.0,48,0.00,,,0.00,55.000000,,2013-05-12 02:01:00,
2013-05-11 20:11:00,47.0,28.0,-100.00,ESE,119,2.0,6.0,48,0.00,,,0.00,55.000000,,2013-05-12 02:11:00,
2013-05-11 20:22:00,47.0,28.0,-100.00,ESE,119,2.0,6.0,48,0.00,,,0.00,55.000000,,2013-05-12 02:22:00,
2013-05-11 20:42:00,43.0,28.0,-100.00,ENE,76,2.0,4.0,56,0.00,,,0.00,12.000000,,2013-05-12 02:42:00,
2013-05-11 20:52:00,43.0,28.0,-100.00,ENE,76,2.0,4.0,56,0.00,,,0.00,12.000000,,2013-05-12 02:52:00,
2013-05-11 21:01:00,43.0,28.0,-100.00,ENE,76,2.0,4.0,56,0.00,,,0.00,12.000000,,2013-05-12 03:01:00,
2013-05-11 21:11:00,43.0,28.0,-100.00,ENE,76,2.0,4.0,56,0.00,,,0.00,12.000000,,2013-05-12 03:11:00,
2013-05-11 21:22:00,43.0,28.0,-100.00,ENE,76,2.0,4.0,56,0.00,,,0.00,12.000000,,2013-05-12 03:22:00,
2013-05-11 21:43:00,41.0,28.0,-100.00,ENE,74,2.0,3.0,59,0.00,,,0.00,1.000000,,2013-05-12 03:43:00,
2013-05-11 21:53:00,41.0,28.0,-100.00,ENE,74,2.0,3.0,59,0.00,,,0.00,1.000000,,2013-05-12 03:53:00,
2013-05-11 22:03:00,-999.0,-99.9,-100.00,ENE,74,2.0,3.0,59,0.00,,,0.00,1.000000,,2013-05-12 04:03:00,
2013-05-11 22:12:00,41.0,28.0,-100.00,ENE,74,2.0,3.0,59,0.00,,,0.00,1.000000,,2013-05-12 04:12:00,
2013-05-11 22:22:00,41.0,28.0,-100.00,ENE,74,2.0,3.0,59,0.00,,,0.00,1.000000,,2013-05-12 04:22:00,
2013-05-11 22:43:00,39.0,25.0,-100.00,North,10,1.0,3.0,58,0.00,,,0.00,1.000000,,2013-05-12 04:43:00,
2013-05-11 22:52:00,39.0,25.0,-100.00,North,10,1.0,3.0,58,0.00,,,0.00,1.000000,,2013-05-12 04:52:00,
2013-05-11 23:02:00,39.0,25.0,-100.00,North,10,1.0,3.0,58,0.00,,,0.00,1.000000,,2013-05-12 05:02:00,
2013-05-11 23:12:00,39.0,25.0,-100.00,North,10,1.0,3.0,58,0.00,,,0.00,1.000000,,2013-05-12 05:12:00,
2013-05-11 23:22:00,39.0,25.0,-100.00,North,10,1.0,3.0,58,0.00,,,0.00,1.000000,,2013-05-12 05:22:00,
2013-05-11 23:42:00,39.0,25.0,-100.00,NE,50,2.0,3.0,56,0.00,,,0.00,1.000000,,2013-05-12 05:42:00,
2013-05-11 23:52:00,39.0,25.0,-100.00,NE,50,2.0,3.0,56,0.00,,,0.00,1.000000,,2013-05-12 05:52:00,